Aérodrome :
LOGIN :

S'inscrire | Disclaimer

   EN    FR    IT 

 










Légende :    VFR   VFR Marginal   IFR   IFR Intensif   IFR Très Intensif
Visi : 
Plafond : 
>= 8 km
>= 3000ft
5 à 8 km
1000 à 3000 ft
1500m à 5 km
500 à 1000 ft
800 à 1500m
200 à 500 ft
< 800m
< 200 ft
Symboles :   Orages  Brouillard  Fortes neiges  Fortes précipitations  Vent > 20 kt
SIGMETs :   Divers  Orages  Givrage  Turbulence  Onde Orograph.  Cendres Volcan.







- Altitude de l'aérodrome : 768 ft
- Code IATA : MXP


LIMC - Milano Malpensa

DERNIER METAR :
  • 122150Z 29003KT 260V330 9999 BKN050 13/13 Q1027 NOSIG

METARs EXPIRÉS :
  • 122120Z 27005KT 9999 BKN050 13/13 Q1027 NOSIG
  • 122050Z 28005KT 260V330 9999 BKN050 13/13 Q1027 NOSIG
  • 122020Z 25007KT 9999 BKN050 13/13 Q1027 NOSIG
  • 121950Z VRB01KT 9999 BKN050 13/13 Q1027 NOSIG
  • 121920Z 01003KT 9999 BKN050 13/13 Q1027 NOSIG
  • 121850Z 36004KT 9999 BKN050 13/13 Q1027 NOSIG

TAF TAF LIMC
Valide du 12 à 18h jusqu'au 14 à 00h UTC


121700Z 1218/1324 VRB05KT 9999 SCT012 BKN060
TEMPO 1218/1221 DZ
BECMG 1221/1224 3000 BR
TEMPO 1302/1307 1200 BCFG
BECMG 1307/1310 7000
BECMG 1315/1318 3500 BR
BECMG 1321/1324 1200 BCFG
Pas de NOTAMs connus pour ce terrain.



MET'MAP, la Météo Aéronautique d'un coup d'oeil ! - Copyright ORBIFLY Décembre 2007 - Disclaimer

ORBIFLY MET'MAP TEAM :

Programmation & Développement : Alexandra Zaïnal
Conception & Développement : Baudouin d'Aumeries
Co-Programmation & Développement : Marc-Olivier Méhu
Soutien technique & logistique : Manuel Goepfert

Contact : metmap@orbifly.com




SOURCES & CREDITS :

   NOAA